Time;durP1;ratioP1;P1;durP2;ratioP2;P2;SDS_P1;SDS_P2;PMS_P1;PMS_P2;Temp;Humidity;BMP_temperature;BMP_pressure;BME280_temperature;BME280_humidity;BME280_pressure;Samples;Min_cycle;Max_cycle;Signal;HPM_P1;HPM_P2
2021/11/01 00:01:30;;;;;;;20.80;13.95;;;;;;;4.77;100.00;95502.88;4999564;28;20394;-63
2021/11/01 00:04:02;;;;;;;21.05;13.50;;;;;;;4.87;100.00;95506.16;4999572;28;20048;-63
2021/11/01 00:06:27;;;;;;;20.95;13.38;;;;;;;5.00;100.00;95502.13;4993920;28;20108;-64
2021/11/01 00:08:53;;;;;;;25.60;13.45;;;;;;;5.20;100.00;95510.25;4998940;28;20050;-63
2021/11/01 00:11:18;;;;;;;18.02;11.65;;;;;;;5.53;100.00;95502.28;4995549;28;20048;-62
2021/11/01 00:13:43;;;;;;;19.77;11.57;;;;;;;5.74;100.00;95499.13;5000156;28;20054;-62
2021/11/01 00:16:09;;;;;;;17.65;11.48;;;;;;;5.64;100.00;95499.75;4999614;28;20073;-62
2021/11/01 00:18:34;;;;;;;19.27;10.63;;;;;;;5.49;100.00;95487.06;5000854;28;20347;-63
2021/11/01 00:20:59;;;;;;;18.02;10.60;;;;;;;5.61;100.00;95478.72;5003500;28;20457;-64
2021/11/01 00:23:25;;;;;;;14.68;9.90;;;;;;;5.74;100.00;95473.88;4997855;28;20052;-63
2021/11/01 00:25:51;;;;;;;16.02;10.50;;;;;;;5.88;100.00;95468.66;4992104;28;20092;-62
2021/11/01 00:28:16;;;;;;;13.75;10.55;;;;;;;5.91;100.00;95478.81;4986407;28;20563;-64
2021/11/01 00:30:42;;;;;;;17.10;9.93;;;;;;;5.90;100.00;95479.94;5002250;28;20134;-63
2021/11/01 00:33:07;;;;;;;12.98;8.85;;;;;;;5.82;100.00;95474.78;5001933;28;20050;-63
2021/11/01 00:35:33;;;;;;;14.50;9.40;;;;;;;5.81;100.00;95481.38;5009042;28;20049;-64
2021/11/01 00:37:58;;;;;;;16.60;8.80;;;;;;;5.78;100.00;95479.38;5002904;28;20485;-62
2021/11/01 00:40:24;;;;;;;15.85;8.68;;;;;;;5.79;100.00;95470.84;4988173;28;20266;-63
2021/11/01 00:42:49;;;;;;;14.20;8.90;;;;;;;5.79;100.00;95470.84;5002224;28;20041;-63
2021/11/01 00:45:15;;;;;;;13.02;8.27;;;;;;;5.70;100.00;95473.06;4992017;28;20070;-63
2021/11/01 00:47:40;;;;;;;13.43;8.85;;;;;;;5.63;100.00;95467.50;5012262;28;20128;-63
2021/11/01 00:50:07;;;;;;;13.50;9.13;;;;;;;5.63;100.00;95462.84;4994955;28;20064;-63
2021/11/01 00:52:33;;;;;;;18.65;8.60;;;;;;;5.66;100.00;95462.13;5002833;28;20037;-63
2021/11/01 00:55:00;;;;;;;11.90;7.78;;;;;;;5.69;100.00;95461.41;4997016;28;20064;-64
2021/11/01 00:57:27;;;;;;;13.10;7.38;;;;;;;5.71;100.00;95456.41;4994373;28;20483;-62
2021/11/01 00:59:52;;;;;;;15.23;8.73;;;;;;;5.49;100.00;95449.03;4997754;28;20050;-64
2021/11/01 01:02:18;;;;;;;12.55;8.68;;;;;;;5.50;100.00;95442.47;4998633;28;20398;-64
2021/11/01 01:04:43;;;;;;;12.13;7.75;;;;;;;5.49;100.00;95438.19;5002727;28;20046;-64
2021/11/01 01:07:09;;;;;;;11.88;8.55;;;;;;;5.52;100.00;95432.03;5014803;28;20042;-64
2021/11/01 01:09:34;;;;;;;12.35;9.05;;;;;;;5.38;100.00;95427.16;4996387;28;20124;-64
2021/11/01 01:12:01;;;;;;;13.98;9.55;;;;;;;5.16;100.00;95426.03;4998965;28;20034;-64
2021/11/01 01:14:29;;;;;;;15.40;9.63;;;;;;;5.12;100.00;95417.06;4994804;28;20050;-64
2021/11/01 01:16:56;;;;;;;17.25;11.43;;;;;;;5.06;100.00;95422.00;4992826;28;20049;-64
2021/11/01 01:19:23;;;;;;;16.70;11.13;;;;;;;5.03;100.00;95427.38;5000553;28;20045;-64
2021/11/01 01:22:28;;;;;;;18.30;11.40;;;;;;;5.01;100.00;95430.44;4998490;28;20042;-64
2021/11/01 01:24:40;;;;;;;19.63;10.60;;;;;;;5.14;100.00;95428.31;4986050;28;20038;-64
2021/11/01 01:27:06;;;;;;;17.05;10.93;;;;;;;5.22;100.00;95432.75;4996332;28;20045;-64
2021/11/01 01:29:31;;;;;;;13.07;9.85;;;;;;;5.40;100.00;95426.78;5001481;28;20046;-64
2021/11/01 01:31:57;;;;;;;18.90;10.77;;;;;;;5.33;100.00;95420.13;5000888;28;20056;-63
2021/11/01 01:34:23;;;;;;;14.35;9.35;;;;;;;5.33;100.00;95422.84;4997414;28;20057;-63
2021/11/01 01:36:49;;;;;;;13.90;9.30;;;;;;;5.42;100.00;95422.59;4999934;28;20372;-63
2021/11/01 01:39:14;;;;;;;13.18;8.93;;;;;;;5.35;100.00;95419.75;4986485;28;20034;-63
2021/11/01 01:41:45;;;;;;;14.00;9.55;;;;;;;5.33;100.00;95416.59;5014631;28;20096;-64
2021/11/01 01:44:11;;;;;;;13.27;8.00;;;;;;;5.42;100.00;95411.72;4995248;28;20061;-64
2021/11/01 01:46:36;;;;;;;12.38;8.43;;;;;;;5.49;100.00;95416.47;4998414;28;20076;-64
2021/11/01 01:49:02;;;;;;;12.73;8.05;;;;;;;5.54;100.00;95411.50;4994114;28;20041;-63
2021/11/01 01:51:29;;;;;;;11.50;8.18;;;;;;;5.67;100.00;95398.50;4989012;28;20042;-62
2021/11/01 01:53:56;;;;;;;19.88;8.18;;;;;;;5.64;100.00;95395.75;4997976;28;20049;-63
2021/11/01 01:56:22;;;;;;;13.90;8.35;;;;;;;5.64;100.00;95388.38;4987430;28;20566;-62
2021/11/01 01:58:52;;;;;;;12.25;8.38;;;;;;;5.51;100.00;95390.53;5004684;28;20107;-63
2021/11/01 02:01:18;;;;;;;;;;;;;;;5.47;100.00;95392.38;4967664;28;20453;-63
2021/11/01 02:03:47;;;;;;;11.38;9.13;;;;;;;5.39;100.00;95389.94;5008757;28;19917;-62
2021/11/01 02:06:27;;;;;;;11.18;7.40;;;;;;;5.34;100.00;95383.66;4986302;28;20030;-62
2021/11/01 02:09:30;;;;;;;11.90;8.05;;;;;;;5.45;100.00;95377.63;4992655;28;20041;-63
2021/11/01 02:12:03;;;;;;;10.30;7.35;;;;;;;5.39;100.00;95384.50;4982909;28;20133;-62
2021/11/01 02:15:02;;;;;;;11.23;7.47;;;;;;;5.22;100.00;95392.03;4988645;28;20077;-62
2021/11/01 02:17:29;;;;;;;10.90;7.22;;;;;;;5.24;100.00;95397.88;4974071;28;20060;-63
2021/11/01 02:20:04;;;;;;;12.95;8.35;;;;;;;5.02;100.00;95401.38;4992429;28;20096;-62
2021/11/01 02:22:39;;;;;;;15.13;9.30;;;;;;;4.86;100.00;95399.56;4991657;28;20045;-62
2021/11/01 02:25:07;;;;;;;11.27;8.00;;;;;;;4.96;100.00;95384.59;4975222;28;20053;-62
2021/11/01 02:27:37;;;;;;;14.50;8.05;;;;;;;4.95;100.00;95381.13;4989192;28;20514;-62
2021/11/01 02:30:08;;;;;;;13.07;8.15;;;;;;;5.03;100.00;95382.00;4984929;28;20478;-61
2021/11/01 02:32:41;;;;;;;13.80;8.48;;;;;;;5.06;100.00;95377.78;4996734;28;20048;-62
2021/11/01 02:35:08;;;;;;;10.93;7.22;;;;;;;5.17;100.00;95373.31;4995891;28;20087;-62
2021/11/01 02:37:37;;;;;;;13.77;7.95;;;;;;;5.34;100.00;95378.22;4999416;28;20041;-63
2021/11/01 02:40:02;;;;;;;9.70;7.50;;;;;;;5.48;100.00;95374.94;4993428;28;20037;-62
2021/11/01 02:42:28;;;;;;;12.10;7.32;;;;;;;5.49;100.00;95373.81;5012822;28;20499;-63
2021/11/01 02:45:06;;;;;;;12.35;7.63;;;;;;;5.34;100.00;95380.94;4989488;28;20052;-63
2021/11/01 02:47:33;;;;;;;11.32;7.00;;;;;;;5.30;100.00;95382.81;4997968;28;20513;-63
2021/11/01 02:50:00;;;;;;;9.27;6.50;;;;;;;5.30;100.00;95384.75;4985204;28;20045;-64
2021/11/01 02:52:29;;;;;;;12.70;8.45;;;;;;;5.31;100.00;95389.03;4983765;28;20074;-65
2021/11/01 02:54:56;;;;;;;12.30;8.05;;;;;;;5.32;100.00;95387.91;5000800;28;20371;-64
2021/11/01 02:57:22;;;;;;;15.90;10.45;;;;;;;5.26;100.00;95376.56;4988486;23;20076;-62
2021/11/01 02:59:48;;;;;;;10.70;7.47;;;;;;;5.41;100.00;95391.13;4961339;28;20050;-61
2021/11/01 03:02:16;;;;;;;10.93;7.78;;;;;;;5.62;100.00;95384.44;4948795;28;20067;-62
2021/11/01 03:04:42;;;;;;;14.02;7.32;;;;;;;5.66;100.00;95398.88;4958912;28;20050;-61
2021/11/01 03:07:08;;;;;;;13.73;7.70;;;;;;;5.26;100.00;95387.44;4956559;28;20486;-61
2021/11/01 03:09:37;;;;;;;13.73;8.30;;;;;;;4.92;100.00;95391.91;4961836;28;20043;-62
2021/11/01 03:12:06;;;;;;;18.52;9.98;;;;;;;4.77;100.00;95394.38;4960583;28;20042;-61
2021/11/01 03:14:40;;;;;;;15.82;10.05;;;;;;;4.70;100.00;95385.31;4975068;28;20077;-62
2021/11/01 03:17:08;;;;;;;16.60;10.90;;;;;;;4.60;100.00;95375.84;4963330;28;20059;-61
2021/11/01 03:19:38;;;;;;;17.45;10.70;;;;;;;4.50;100.00;95382.66;4961387;28;20105;-62
2021/11/01 03:22:05;;;;;;;19.48;10.38;;;;;;;4.53;100.00;95371.06;4950604;28;20058;-61
2021/11/01 03:24:38;;;;;;;20.13;11.55;;;;;;;4.57;100.00;95371.94;4955895;28;20439;-63
2021/11/01 03:27:06;;;;;;;15.70;10.10;;;;;;;4.77;100.00;95380.00;4957695;28;20109;-61
2021/11/01 03:29:33;;;;;;;15.43;9.60;;;;;;;4.86;100.00;95375.16;4958815;28;20078;-61
2021/11/01 03:32:02;;;;;;;17.95;10.50;;;;;;;4.84;100.00;95377.41;4954436;28;20113;-62
2021/11/01 03:34:29;;;;;;;13.85;8.70;;;;;;;4.98;100.00;95377.66;4950960;28;20046;-62
2021/11/01 03:36:57;;;;;;;12.80;9.30;;;;;;;5.02;100.00;95380.44;4960961;28;20543;-63
2021/11/01 03:39:23;;;;;;;15.48;10.27;;;;;;;4.95;100.00;95389.25;4949041;28;20125;-61
2021/11/01 03:41:50;;;;;;;15.40;9.63;;;;;;;5.05;100.00;95392.50;4960065;28;20081;-62
2021/11/01 03:44:25;;;;;;;12.13;8.65;;;;;;;5.06;100.00;95392.16;4956232;28;20042;-60
2021/11/01 03:46:55;;;;;;;14.15;8.98;;;;;;;4.99;100.00;95397.47;4959419;28;20488;-61
2021/11/01 03:49:26;;;;;;;12.43;8.90;;;;;;;5.20;100.00;95401.66;4957605;28;20121;-61
2021/11/01 03:54:34;;;;;;;13.23;8.25;;;;;;;5.35;100.00;95404.25;4963948;28;20047;-61
2021/11/01 03:57:00;;;;;;;11.55;7.82;;;;;;;5.36;100.00;95413.16;4968406;28;20495;-61
2021/11/01 03:59:27;;;;;;;11.20;7.10;;;;;;;5.35;100.00;95406.97;4963736;28;20046;-61
2021/11/01 04:01:53;;;;;;;14.93;8.52;;;;;;;5.33;100.00;95416.59;4959097;28;20046;-61
2021/11/01 04:04:19;;;;;;;14.15;8.38;;;;;;;5.32;100.00;95421.25;4954069;28;20042;-61
2021/11/01 04:06:45;;;;;;;11.70;8.07;;;;;;;5.29;100.00;95418.47;4963895;28;20094;-61
2021/11/01 04:09:13;;;;;;;12.00;7.63;;;;;;;5.36;100.00;95424.81;4958887;28;20042;-61
2021/11/01 04:11:43;;;;;;;13.10;8.30;;;;;;;5.19;100.00;95421.81;4964629;28;20046;-59
2021/11/01 04:14:14;;;;;;;;;;;;;;;5.01;100.00;95435.88;4952738;28;20105;-59
2021/11/01 04:16:45;;;;;;;15.00;9.18;;;;;;;4.92;100.00;95436.09;4959375;28;20331;-61
2021/11/01 04:21:39;;;;;;;13.23;8.55;;;;;;;4.93;100.00;95439.59;4964152;28;20042;-60
2021/11/01 04:24:05;;;;;;;14.88;9.50;;;;;;;4.98;100.00;95447.44;4957135;28;20411;-58
2021/11/01 04:26:31;;;;;;;12.90;8.48;;;;;;;5.12;100.00;95446.91;4962838;28;20055;-61
2021/11/01 04:28:58;;;;;;;13.15;8.77;;;;;;;5.38;100.00;95453.53;4956377;28;20090;-60
2021/11/01 04:31:31;;;;;;;12.38;8.13;;;;;;;5.48;100.00;95459.13;4956712;28;20540;-60
2021/11/01 04:34:01;;;;;;;12.05;8.15;;;;;;;5.47;100.00;95462.97;4956310;28;20039;-62
2021/11/01 04:36:27;;;;;;;12.15;8.25;;;;;;;5.53;100.00;95456.13;4958678;28;20723;-61
2021/11/01 04:42:26;;;;;;;11.15;7.10;;;;;;;5.73;100.00;95454.09;4909223;28;20054;-60
2021/11/01 04:52:53;;;;;;;11.60;7.00;;;;;;;5.75;100.00;95467.31;4963076;28;20174;-59
2021/11/01 04:53:05;;;;;;;7.70;5.85;;;;;;;5.66;100.00;95473.00;4963830;28;20074;-61
2021/11/01 04:55:32;;;;;;;9.00;6.57;;;;;;;5.79;100.00;95481.72;4962545;28;20050;-61
2021/11/01 04:57:58;;;;;;;30.23;16.02;;;;;;;5.82;100.00;95483.72;4955646;28;20042;-61
2021/11/01 05:00:25;;;;;;;15.10;7.68;;;;;;;5.83;100.00;95479.84;4956866;28;20053;-61
2021/11/01 05:03:04;;;;;;;9.20;6.35;;;;;;;5.91;100.00;95491.63;4961953;28;20113;-58
2021/11/01 05:05:30;;;;;;;12.98;7.45;;;;;;;6.10;100.00;95496.97;4960638;28;20105;-59
2021/11/01 05:07:58;;;;;;;9.52;6.47;;;;;;;6.01;100.00;95503.81;4945393;28;20043;-60
2021/11/01 05:10:29;;;;;;;9.65;6.57;;;;;;;5.94;100.00;95499.03;4957673;28;20482;-59
2021/11/01 05:12:55;;;;;;;11.02;6.80;;;;;;;5.82;100.00;95493.81;4960998;28;20231;-58
2021/11/01 05:15:43;;;;;;;13.85;8.48;;;;;;;5.49;100.00;95487.88;4937565;28;20411;-57
2021/11/01 05:21:19;;;;;;;13.02;7.95;;;;;;;5.24;100.00;95492.06;4957994;28;20050;-59
2021/11/01 05:23:36;;;;;;;12.35;8.20;;;;;;;5.30;100.00;95501.50;4956977;28;20050;-61
2021/11/01 05:26:16;;;;;;;13.40;9.27;;;;;;;5.40;100.00;95506.31;4963301;28;20090;-60
2021/11/01 05:28:44;;;;;;;13.48;9.15;;;;;;;5.46;100.00;95514.97;4961429;28;20038;-60
2021/11/01 05:31:25;;;;;;;11.93;8.35;;;;;;;5.62;100.00;95509.38;4940275;28;20121;-59
2021/11/01 05:34:01;;;;;;;12.63;8.07;;;;;;;5.82;100.00;95497.31;4962425;28;20074;-61
2021/11/01 05:36:28;;;;;;;10.82;7.50;;;;;;;6.03;100.00;95506.94;4958801;28;20043;-61
2021/11/01 05:38:54;;;;;;;11.40;7.43;;;;;;;6.15;100.00;95517.63;4951111;28;20082;-59
2021/11/01 05:41:19;;;;;;;12.68;7.25;;;;;;;6.26;100.00;95520.50;4953887;28;20484;-61
2021/11/01 05:43:45;;;;;;;10.50;7.03;;;;;;;6.26;100.00;95518.53;4956855;28;20054;-61
2021/11/01 05:46:12;;;;;;;11.85;6.50;;;;;;;6.28;100.00;95516.28;4947983;28;20500;-59
2021/11/01 05:48:39;;;;;;;12.90;7.07;;;;;;;6.39;100.00;95524.56;4939812;28;20309;-61
2021/11/01 05:51:06;;;;;;;10.30;6.78;;;;;;;6.38;100.00;95525.72;4953139;28;20046;-60
2021/11/01 05:53:39;;;;;;;9.70;6.60;;;;;;;6.47;100.00;95528.94;4936209;28;20063;-61
2021/11/01 05:56:47;;;;;;;11.73;6.50;;;;;;;6.51;100.00;95543.38;4964627;28;20050;-61
2021/11/01 06:07:17;;;;;;;9.90;6.70;;;;;;;6.84;100.00;95555.47;4957709;28;20411;-61
2021/11/01 06:15:02;;;;;;;10.07;6.97;;;;;;;7.03;100.00;95557.22;4958332;28;20062;-61
2021/11/01 06:17:28;;;;;;;10.20;6.50;;;;;;;7.03;100.00;95564.63;4949341;28;20047;-61
2021/11/01 06:19:53;;;;;;;11.20;8.02;;;;;;;7.07;100.00;95560.00;4956803;28;20050;-61
2021/11/01 06:22:19;;;;;;;10.60;6.90;;;;;;;7.28;100.00;95567.63;4948226;28;20153;-60
2021/11/01 06:27:12;;;;;;;9.60;6.50;;;;;;;7.57;100.00;95581.53;4965957;28;20086;-60
2021/11/01 07:15:54;;;;;;;11.98;6.43;;;;;;;8.41;100.00;95685.53;4961586;28;20069;-61
2021/11/01 07:18:27;;;;;;;8.63;6.07;;;;;;;8.71;100.00;95692.81;4956384;28;20038;-60
2021/11/01 08:44:09;;;;;;;1.58;0.68;;;;;;;8.68;100.00;95797.28;4975481;28;21115;-61
2021/11/01 08:46:26;;;;;;;1.25;0.80;;;;;;;8.73;100.00;95805.16;4969812;28;20379;-61
2021/11/01 09:05:20;;;;;;;4.15;3.83;;;;;;;8.57;100.00;95814.38;4962500;28;20046;-58
2021/11/01 09:09:52;;;;;;;3.22;2.30;;;;;;;8.59;100.00;95808.53;4967348;28;20045;-61
2021/11/01 09:18:53;;;;;;;1.75;0.90;;;;;;;8.37;100.00;95797.38;4962421;28;20047;-61
2021/11/01 09:27:08;;;;;;;2.90;0.90;;;;;;;8.34;100.00;95808.25;4841400;29;20041;-61
2021/11/01 09:43:04;;;;;;;3.17;1.38;;;;;;;8.15;100.00;95792.84;4961016;28;20498;-58
2021/11/01 09:45:33;;;;;;;3.20;1.00;;;;;;;8.23;100.00;95797.22;4945118;28;20051;-61
2021/11/01 09:47:59;;;;;;;0.65;0.60;;;;;;;8.36;100.00;95790.34;4963946;28;20045;-61
2021/11/01 09:50:24;;;;;;;2.72;0.80;;;;;;;8.43;100.00;95795.13;4960167;28;20710;-60
2021/11/01 09:53:00;;;;;;;1.27;0.65;;;;;;;8.53;100.00;95794.44;4962797;28;20043;-60
2021/11/01 10:00:53;;;;;;;1.42;0.70;;;;;;;8.86;100.00;95794.72;4956473;28;20053;-62
2021/11/01 10:03:33;;;;;;;1.98;1.20;;;;;;;8.93;100.00;95792.84;4954073;28;20039;-59
2021/11/01 10:06:00;;;;;;;1.52;1.10;;;;;;;8.93;100.00;95783.84;4945315;28;20479;-61
2021/11/01 10:08:27;;;;;;;2.03;1.48;;;;;;;8.72;100.00;95781.75;4955238;28;20047;-59
2021/11/01 10:10:53;;;;;;;1.85;1.17;;;;;;;8.36;100.00;95776.69;4964131;28;20543;-60
2021/11/01 10:13:19;;;;;;;3.47;1.98;;;;;;;8.13;100.00;95776.06;4956239;28;20043;-60
2021/11/01 10:18:46;;;;;;;2.35;1.70;;;;;;;8.25;100.00;95770.34;4952184;28;20412;-61
2021/11/01 10:21:11;;;;;;;1.73;1.10;;;;;;;8.31;100.00;95776.25;4955568;28;20043;-59
2021/11/01 10:23:51;;;;;;;1.80;1.00;;;;;;;8.37;100.00;95778.28;4961743;28;20559;-59
2021/11/01 10:26:19;;;;;;;2.72;1.30;;;;;;;8.57;100.00;95784.34;4949813;28;20403;-60
2021/11/01 10:28:49;;;;;;;2.25;1.35;;;;;;;8.74;100.00;95777.47;4961973;28;20046;-59
2021/11/01 10:31:19;;;;;;;4.50;1.50;;;;;;;8.73;100.00;95767.72;4956566;28;21363;-62
2021/11/01 10:33:46;;;;;;;2.50;1.40;;;;;;;8.80;100.00;95769.72;4961889;28;20078;-60
2021/11/01 10:36:36;;;;;;;3.40;1.60;;;;;;;8.91;100.00;95770.59;4954117;28;20109;-60
2021/11/01 10:39:03;;;;;;;;;;;;;;;9.17;100.00;95763.38;4962206;28;20132;-60
2021/11/01 10:41:52;;;;;;;1.17;0.82;;;;;;;9.19;100.00;95758.31;4958883;28;20363;-61
2021/11/01 11:11:56;;;;;;;6.90;3.90;;;;;;;9.27;100.00;95716.19;4961717;28;20038;-60
2021/11/01 11:15:07;;;;;;;8.43;3.05;;;;;;;9.22;100.00;95715.75;4955365;28;20947;-61
2021/11/01 11:38:41;;;;;;;3.00;2.00;;;;;;;9.30;100.00;95707.22;4936264;29;20081;-60
2021/11/01 11:48:48;;;;;;;2.17;1.27;;;;;;;9.04;100.00;95702.81;4941973;29;20085;-61
2021/11/01 11:51:13;;;;;;;3.47;1.77;;;;;;;8.92;100.00;95705.84;4936833;29;20059;-62
2021/11/01 11:53:57;;;;;;;3.65;1.58;;;;;;;9.03;100.00;95698.50;4941264;29;20467;-59
2021/11/01 11:56:38;;;;;;;3.75;1.58;;;;;;;9.12;100.00;95706.34;4936283;28;20794;-61
2021/11/01 11:59:07;;;;;;;2.67;1.40;;;;;;;9.23;100.00;95699.00;4952891;28;20042;-63
2021/11/01 12:01:35;;;;;;;3.92;1.10;;;;;;;9.34;100.00;95705.28;4959366;28;20053;-62
2021/11/01 12:04:04;;;;;;;9.55;6.20;;;;;;;9.28;100.00;95697.84;4960600;28;20046;-62
2021/11/01 12:07:00;;;;;;;4.50;2.40;;;;;;;9.27;100.00;95691.59;4959626;28;20047;-62
2021/11/01 12:09:35;;;;;;;4.15;1.95;;;;;;;9.26;100.00;95678.34;4950700;28;20043;-61
2021/11/01 12:17:50;;;;;;;5.97;2.33;;;;;;;9.31;100.00;95669.75;4963995;28;20039;-59
2021/11/01 12:20:20;;;;;;;6.43;3.30;;;;;;;9.33;100.00;95668.22;4949371;28;20169;-61
2021/11/01 12:22:49;;;;;;;10.57;5.32;;;;;;;8.86;100.00;95653.53;4974568;28;20053;-61
2021/11/01 12:25:17;;;;;;;9.00;5.40;;;;;;;8.84;100.00;95663.25;4961132;28;20057;-60
2021/11/01 12:27:50;;;;;;;9.35;4.95;;;;;;;9.01;100.00;95654.41;4964259;28;20050;-62
2021/11/01 12:30:18;;;;;;;5.53;4.50;;;;;;;9.19;100.00;95662.69;4954610;28;20365;-61
2021/11/01 12:32:44;;;;;;;5.38;2.97;;;;;;;8.90;100.00;95653.56;4964372;28;20043;-60
2021/11/01 12:35:30;;;;;;;4.07;2.50;;;;;;;8.55;100.00;95661.13;4959651;28;20403;-61
2021/11/01 12:38:11;;;;;;;2.47;1.20;;;;;;;8.51;100.00;95663.03;4964531;28;20679;-62
2021/11/01 12:41:00;;;;;;;2.80;2.03;;;;;;;8.53;100.00;95668.09;4964525;28;20046;-60
2021/11/01 12:59:45;;;;;;;3.50;2.08;;;;;;;8.21;100.00;95630.41;4960495;28;20521;-61
2021/11/01 13:02:19;;;;;;;4.07;2.03;;;;;;;8.10;100.00;95626.81;4958981;28;20051;-62
2021/11/01 13:04:49;;;;;;;3.83;1.80;;;;;;;7.92;100.00;95621.97;4963519;28;20141;-62
2021/11/01 13:09:57;;;;;;;4.85;1.95;;;;;;;7.87;100.00;95611.44;4964209;28;20045;-61
2021/11/01 13:18:08;;;;;;;4.50;1.92;;;;;;;7.99;100.00;95592.03;4960220;28;20739;-60
2021/11/01 13:20:36;;;;;;;3.25;1.70;;;;;;;7.87;100.00;95595.06;4961415;28;20118;-59
2021/11/01 13:23:02;;;;;;;4.75;1.70;;;;;;;7.85;100.00;95594.66;4963197;28;20062;-61
2021/11/01 13:36:41;;;;;;;2.25;1.40;;;;;;;7.80;100.00;95578.66;4942003;28;20141;-59
2021/11/01 13:39:08;;;;;;;;;;;;;;;7.74;100.00;95571.97;4956696;28;20043;-60
2021/11/01 13:41:34;;;;;;;2.63;1.30;;;;;;;7.71;100.00;95573.50;4962484;28;19914;-61
2021/11/01 13:44:14;;;;;;;2.15;1.35;;;;;;;7.72;100.00;95574.28;4943905;28;20102;-62
2021/11/01 13:46:45;;;;;;;2.55;1.60;;;;;;;7.79;100.00;95568.91;4959448;28;20090;-61
2021/11/01 13:49:12;;;;;;;2.95;1.60;;;;;;;7.65;100.00;95558.63;4957168;28;20050;-61
2021/11/01 13:51:37;;;;;;;5.43;2.70;;;;;;;7.62;100.00;95553.97;4955186;28;20042;-63
2021/11/01 13:56:47;;;;;;;3.17;2.03;;;;;;;7.56;100.00;95553.53;4960051;28;20189;-61
2021/11/01 14:15:58;;;;;;;3.13;1.92;;;;;;;7.60;100.00;95548.88;4932049;29;20808;-62
2021/11/01 15:17:45;;;;;;;9.82;5.32;;;;;;;7.44;100.00;95527.31;4930854;28;20038;-59
2021/11/01 15:20:23;;;;;;;6.85;3.70;;;;;;;7.38;100.00;95525.31;4956145;28;20085;-60
2021/11/01 15:23:14;;;;;;;5.50;2.60;;;;;;;7.42;100.00;95526.91;4960731;28;20472;-60
2021/11/01 16:18:47;;;;;;;3.95;1.55;;;;;;;7.10;100.00;95551.09;4952721;28;20039;-62
2021/11/01 16:21:13;;;;;;;2.38;1.50;;;;;;;7.10;100.00;95548.38;4952639;28;20039;-61
2021/11/01 16:23:40;;;;;;;5.30;3.25;;;;;;;7.05;100.00;95548.69;4964724;28;20035;-62
2021/11/01 16:26:17;;;;;;;2.47;1.63;;;;;;;6.96;100.00;95551.69;4958560;28;20062;-61
2021/11/01 16:28:43;;;;;;;8.18;4.65;;;;;;;6.91;100.00;95552.03;4938511;29;20041;-62
2021/11/01 16:33:48;;;;;;;9.88;5.60;;;;;;;6.85;100.00;95537.97;4942272;29;20508;-60
2021/11/01 16:36:39;;;;;;;3.33;2.25;;;;;;;6.84;100.00;95536.41;4947072;28;20396;-60
2021/11/01 16:39:05;;;;;;;3.33;1.75;;;;;;;6.82;100.00;95533.25;4959558;28;20039;-60
2021/11/01 16:41:32;;;;;;;4.28;2.65;;;;;;;6.79;100.00;95536.75;4962094;28;20101;-60
2021/11/01 16:44:02;;;;;;;3.40;2.20;;;;;;;6.78;100.00;95527.00;4962382;28;20070;-61
2021/11/01 16:46:27;;;;;;;;;;;;;;;6.77;100.00;95532.81;4958987;28;20049;-62
2021/11/01 16:48:56;;;;;;;5.07;3.20;;;;;;;6.74;100.00;95526.19;4964148;28;20414;-62
2021/11/01 16:51:22;;;;;;;3.42;1.70;;;;;;;6.74;100.00;95522.69;4950292;28;20803;-61
2021/11/01 16:53:49;;;;;;;4.93;2.85;;;;;;;6.74;100.00;95519.97;4964500;28;20058;-60
2021/11/01 16:56:36;;;;;;;4.22;1.90;;;;;;;6.73;100.00;95510.22;4963762;28;20039;-57
2021/11/01 16:59:14;;;;;;;4.07;1.70;;;;;;;6.73;100.00;95508.25;4964967;28;20072;-61
2021/11/01 17:01:48;;;;;;;3.25;1.80;;;;;;;6.69;100.00;95518.34;4963552;28;20035;-58
2021/11/01 17:04:18;;;;;;;2.20;1.70;;;;;;;6.68;100.00;95517.56;4957901;28;20034;-61
2021/11/01 17:07:09;;;;;;;2.90;1.50;;;;;;;6.62;100.00;95507.34;4954367;28;20061;-62
2021/11/01 17:24:03;;;;;;;1.83;1.30;;;;;;;6.47;100.00;95528.16;4951818;28;20500;-61
2021/11/01 17:26:09;;;;;;;2.00;1.17;;;;;;;6.45;100.00;95533.19;4959924;28;20042;-61
2021/11/01 18:51:05;;;;;;;1.73;1.35;;;;;;;6.31;100.00;95528.34;4980905;28;20069;-63
2021/11/01 18:53:39;;;;;;;2.72;1.60;;;;;;;6.31;100.00;95520.19;4969590;28;20050;-64
2021/11/01 18:56:08;;;;;;;2.80;1.80;;;;;;;6.23;100.00;95526.66;4960874;28;20526;-62
2021/11/01 18:58:38;;;;;;;4.03;2.40;;;;;;;6.21;100.00;95532.47;4982945;28;20101;-64
2021/11/01 19:01:07;;;;;;;9.40;7.65;;;;;;;6.23;100.00;95532.91;4993257;28;20057;-61
2021/11/01 19:03:36;;;;;;;7.30;6.20;;;;;;;6.26;100.00;95537.56;4981484;28;20047;-64
2021/11/01 19:06:14;;;;;;;5.60;3.33;;;;;;;6.33;100.00;95542.34;4981990;28;20227;-62
2021/11/01 20:04:37;;;;;;;3.35;1.67;;;;;;;5.40;100.00;95530.75;4967017;28;20042;-63
2021/11/01 20:10:04;;;;;;;6.43;2.80;;;;;;;5.42;100.00;95527.69;4985097;28;20054;-64
2021/11/01 20:12:59;;;;;;;4.05;2.65;;;;;;;5.41;100.00;95534.28;4987739;28;20038;-65
2021/11/01 21:25:03;;;;;;;4.45;2.40;;;;;;;4.36;100.00;95539.63;4979913;28;20046;-64
2021/11/01 21:27:30;;;;;;;3.90;2.35;;;;;;;4.29;100.00;95537.53;4988877;28;20138;-64
2021/11/01 21:29:56;;;;;;;3.20;2.30;;;;;;;4.36;100.00;95536.91;4984016;28;20050;-62
2021/11/01 21:32:22;;;;;;;2.67;1.95;;;;;;;4.45;100.00;95537.50;4980991;28;20354;-64
2021/11/01 21:37:19;;;;;;;8.02;4.20;;;;;;;4.71;100.00;95528.72;5002713;28;20042;-64
2021/11/01 21:39:45;;;;;;;7.97;4.45;;;;;;;4.65;100.00;95534.78;4971522;28;20497;-64
2021/11/01 21:42:11;;;;;;;6.38;4.13;;;;;;;4.44;100.00;95541.31;4990132;28;20054;-63
2021/11/01 21:44:38;;;;;;;6.88;4.95;;;;;;;4.40;100.00;95535.81;4961516;28;20077;-63
2021/11/01 21:47:05;;;;;;;8.35;4.78;;;;;;;4.29;100.00;95537.53;4969454;28;20046;-63
2021/11/01 21:49:31;;;;;;;6.47;4.10;;;;;;;4.27;100.00;95531.69;4977962;28;20034;-63
2021/11/01 21:51:57;;;;;;;6.07;3.50;;;;;;;4.31;100.00;95527.13;4997550;28;20410;-64
2021/11/01 21:54:28;;;;;;;5.75;3.63;;;;;;;4.48;100.00;95522.41;4967901;28;20054;-63
2021/11/01 21:57:08;;;;;;;4.45;3.20;;;;;;;4.51;100.00;95519.78;4981723;28;20038;-63
2021/11/01 22:18:27;;;;;;;16.75;6.95;;;;;;;4.81;100.00;95500.25;4974696;28;20053;-64
2021/11/01 22:20:58;;;;;;;8.13;5.60;;;;;;;4.85;100.00;95500.31;4976189;28;20136;-65
2021/11/01 22:42:48;;;;;;;7.63;3.70;;;;;;;4.89;100.00;95503.88;4973068;28;20049;-65
2021/11/01 22:55:58;;;;;;;6.13;4.55;;;;;;;4.68;100.00;95491.47;4983250;28;20049;-64
2021/11/01 22:58:24;;;;;;;7.93;4.07;;;;;;;4.78;100.00;95495.53;4982398;28;20342;-64
2021/11/01 23:00:58;;;;;;;10.25;4.68;;;;;;;4.79;100.00;95487.03;4987409;28;20038;-64
2021/11/01 23:03:32;;;;;;;6.13;4.28;;;;;;;4.68;100.00;95482.53;4981195;28;20208;-64
2021/11/01 23:33:16;;;;;;;8.00;4.85;;;;;;;4.56;100.00;95467.97;4975960;28;20110;-65
2021/11/01 23:35:41;;;;;;;9.27;4.95;;;;;;;4.48;100.00;95466.25;4978577;28;20046;-65
2021/11/01 23:38:07;;;;;;;7.30;5.55;;;;;;;4.53;100.00;95460.56;4973465;28;20065;-65
2021/11/01 23:40:32;;;;;;;7.45;5.43;;;;;;;4.53;100.00;95457.84;4980658;28;20042;-61
2021/11/01 23:42:58;;;;;;;8.68;5.32;;;;;;;4.59;100.00;95461.84;5001558;23;20130;-58
2021/11/01 23:45:23;;;;;;;8.82;5.32;;;;;;;4.67;100.00;95457.34;4936720;28;20525;-58
2021/11/01 23:47:49;;;;;;;7.40;5.35;;;;;;;4.87;100.00;95451.91;4939498;28;20126;-58
2021/11/01 23:50:14;;;;;;;7.72;5.10;;;;;;;5.06;100.00;95456.47;4937083;28;20059;-59
2021/11/01 23:52:41;;;;;;;8.07;4.63;;;;;;;5.11;100.00;95453.47;4938689;28;20039;-60
2021/11/01 23:55:08;;;;;;;6.05;4.40;;;;;;;5.14;100.00;95460.91;4918030;28;20047;-63
2021/11/01 23:57:34;;;;;;;9.48;5.18;;;;;;;5.14;100.00;95464.38;4941760;28;20040;-60
